createdAt,value
2018-06-25T00:00:22.901Z,984.5
2018-06-25T00:01:24.110Z,984.6
2018-06-25T00:02:25.358Z,984.5
2018-06-25T00:03:26.741Z,984.4
2018-06-25T00:04:27.885Z,984.3
2018-06-25T00:05:29.043Z,984.5
2018-06-25T00:06:30.202Z,984.5
2018-06-25T00:07:31.330Z,984.5
2018-06-25T00:08:32.490Z,984.3
2018-06-25T00:09:33.667Z,984.5
2018-06-25T00:10:34.790Z,984.5
2018-06-25T00:11:36.001Z,984.5
2018-06-25T00:12:37.127Z,984.5
2018-06-25T00:13:38.261Z,984.5
2018-06-25T00:14:39.417Z,984.4
2018-06-25T00:15:40.551Z,984.4
2018-06-25T00:16:41.717Z,984.4
2018-06-25T00:17:42.911Z,984.4
2018-06-25T00:18:44.051Z,984.5
2018-06-25T00:19:45.207Z,984.4
2018-06-25T00:20:46.355Z,984.5
2018-06-25T00:21:47.571Z,984.4
2018-06-25T00:22:48.660Z,984.4
2018-06-25T00:23:49.780Z,984.5
2018-06-25T00:24:50.900Z,984.5
2018-06-25T00:25:52.025Z,984.5
2018-06-25T00:26:53.248Z,984.5
2018-06-25T00:27:54.435Z,984.5
2018-06-25T00:28:55.580Z,984.5
2018-06-25T00:29:56.717Z,984.5
2018-06-25T00:30:57.846Z,984.5
2018-06-25T00:31:59.040Z,984.5
2018-06-25T00:33:00.186Z,984.5
2018-06-25T00:34:01.338Z,984.5
2018-06-25T00:35:02.502Z,984.5
2018-06-25T00:36:03.642Z,984.5
2018-06-25T00:37:04.876Z,984.3
2018-06-25T00:38:06.041Z,984.4
2018-06-25T00:39:07.187Z,984.4
2018-06-25T00:40:08.328Z,984.4
2018-06-25T00:41:09.440Z,984.4
2018-06-25T00:42:10.645Z,984.4
2018-06-25T00:43:11.781Z,984.4
2018-06-25T00:44:12.923Z,984.4
2018-06-25T00:45:14.051Z,984.4
2018-06-25T00:46:15.200Z,984.4
2018-06-25T00:47:16.448Z,984.5
2018-06-25T00:48:17.593Z,984.5
2018-06-25T00:49:18.758Z,984.3
2018-06-25T00:50:19.896Z,984.5
2018-06-25T00:51:21.088Z,984.5
2018-06-25T00:52:22.244Z,984.5
2018-06-25T00:53:23.448Z,984.5
2018-06-25T00:54:24.591Z,984.5
2018-06-25T00:55:25.748Z,984.5
2018-06-25T00:56:26.904Z,984.3
2018-06-25T00:57:28.275Z,984.5
2018-06-25T00:58:29.421Z,984.5
2018-06-25T00:59:30.558Z,984.5
2018-06-25T01:00:34.444Z,984.5
2018-06-25T01:01:35.662Z,984.5
2018-06-25T01:02:36.828Z,984.5
2018-06-25T01:03:37.960Z,984.5
2018-06-25T01:04:39.125Z,984.5
2018-06-25T01:05:40.338Z,984.5
2018-06-25T01:06:41.473Z,984.5
2018-06-25T01:07:42.635Z,984.5
2018-06-25T01:08:43.774Z,984.5
2018-06-25T01:09:44.992Z,984.5
2018-06-25T01:10:46.121Z,984.5
2018-06-25T01:11:47.248Z,984.6
2018-06-25T01:12:48.437Z,984.5
2018-06-25T01:13:49.588Z,984.6
2018-06-25T01:14:50.721Z,984.5
2018-06-25T01:15:51.890Z,984.5
2018-06-25T01:16:53.022Z,984.5
2018-06-25T01:17:54.179Z,984.5
2018-06-25T01:18:55.336Z,984.5
2018-06-25T01:19:56.469Z,984.5
2018-06-25T01:20:57.696Z,984.5
2018-06-25T01:21:58.826Z,984.5
2018-06-25T01:23:01.454Z,984.4
2018-06-25T01:24:02.631Z,984.5
2018-06-25T01:25:03.810Z,984.5
2018-06-25T01:26:04.985Z,984.6
2018-06-25T01:27:06.134Z,984.5
2018-06-25T01:28:08.766Z,984.6
2018-06-25T01:29:09.972Z,984.5
2018-06-25T01:30:11.217Z,984.6
2018-06-25T01:31:12.370Z,984.6
2018-06-25T01:32:13.541Z,984.5
2018-06-25T01:33:14.733Z,984.6
2018-06-25T01:34:15.870Z,984.4
2018-06-25T01:35:17.035Z,984.6
2018-06-25T01:36:18.194Z,984.6
2018-06-25T01:37:19.370Z,984.5
2018-06-25T01:38:20.556Z,984.6
2018-06-25T01:39:21.716Z,984.6
2018-06-25T01:40:22.854Z,984.6
2018-06-25T01:41:24.044Z,984.6
2018-06-25T01:42:25.176Z,984.6
2018-06-25T01:43:26.366Z,984.6
2018-06-25T01:44:27.524Z,984.4
2018-06-25T01:45:28.661Z,984.5
2018-06-25T01:46:29.809Z,984.6
2018-06-25T01:47:30.948Z,984.5
2018-06-25T01:48:32.109Z,984.5
2018-06-25T01:49:33.269Z,984.6
2018-06-25T01:50:34.452Z,984.6
2018-06-25T01:51:35.607Z,984.6
2018-06-25T01:52:36.791Z,984.6
2018-06-25T01:53:37.947Z,984.5
2018-06-25T01:54:39.096Z,984.6
2018-06-25T01:55:40.284Z,984.6
2018-06-25T01:56:41.401Z,984.6
2018-06-25T01:57:42.528Z,984.6
2018-06-25T01:58:44.313Z,984.4
2018-06-25T01:59:45.436Z,984.6
2018-06-25T02:00:46.605Z,984.6
2018-06-25T02:01:47.757Z,984.6
2018-06-25T02:02:48.886Z,984.7
2018-06-25T02:03:50.057Z,984.6
2018-06-25T02:04:51.203Z,984.6
2018-06-25T02:05:52.356Z,984.7
2018-06-25T02:06:53.500Z,984.6
2018-06-25T02:07:54.657Z,984.6
2018-06-25T02:08:55.840Z,984.6
2018-06-25T02:09:56.981Z,984.7
2018-06-25T02:10:58.121Z,984.6
2018-06-25T02:11:59.256Z,984.7
2018-06-25T02:13:00.430Z,984.7
2018-06-25T02:14:01.672Z,984.7
2018-06-25T02:15:02.810Z,984.7
2018-06-25T02:16:03.958Z,984.7
2018-06-25T02:17:05.142Z,984.7
2018-06-25T02:18:06.281Z,984.7
2018-06-25T02:19:07.483Z,984.7
2018-06-25T02:20:08.608Z,984.7
2018-06-25T02:21:09.742Z,984.7
2018-06-25T02:22:10.869Z,984.7
2018-06-25T02:23:12.026Z,984.8
2018-06-25T02:24:13.199Z,984.7
2018-06-25T02:25:14.344Z,984.7
2018-06-25T02:26:15.499Z,984.7
2018-06-25T02:27:16.719Z,984.7
2018-06-25T02:28:18.003Z,984.5
2018-06-25T02:29:19.386Z,984.7
2018-06-25T02:30:20.511Z,984.7
2018-06-25T02:31:21.645Z,984.7
2018-06-25T02:32:22.780Z,984.7
2018-06-25T02:33:23.919Z,984.7
2018-06-25T02:34:25.141Z,984.7
2018-06-25T02:35:26.319Z,984.7
2018-06-25T02:36:27.466Z,984.7
2018-06-25T02:37:28.617Z,984.6
2018-06-25T02:38:29.858Z,984.5
2018-06-25T02:39:31.044Z,984.7
2018-06-25T02:40:32.174Z,984.7
2018-06-25T02:41:33.309Z,984.6
2018-06-25T02:42:34.478Z,984.7
2018-06-25T02:43:36.054Z,984.7
2018-06-25T02:44:37.285Z,984.7
2018-06-25T02:45:38.436Z,984.7
2018-06-25T02:46:39.584Z,984.8
2018-06-25T02:47:40.876Z,984.7
2018-06-25T02:48:42.046Z,984.5
2018-06-25T02:49:43.200Z,984.7
2018-06-25T02:50:44.421Z,984.8
2018-06-25T02:51:45.603Z,984.7
2018-06-25T02:52:46.756Z,984.7
2018-06-25T02:53:47.900Z,984.7
2018-06-25T02:54:49.061Z,984.8
2018-06-25T02:55:50.197Z,984.7
2018-06-25T02:56:51.337Z,984.7
2018-06-25T02:57:52.466Z,984.8
2018-06-25T02:58:53.617Z,984.8
2018-06-25T02:59:55.233Z,984.8
2018-06-25T03:00:56.372Z,984.8
2018-06-25T03:01:57.516Z,984.8
2018-06-25T03:02:58.657Z,984.9
2018-06-25T03:03:59.833Z,984.8
2018-06-25T03:05:01.004Z,984.8
2018-06-25T03:06:02.147Z,984.8
2018-06-25T03:07:03.357Z,984.8
2018-06-25T03:08:04.502Z,984.9
2018-06-25T03:09:05.661Z,984.9
2018-06-25T03:10:06.810Z,984.8
2018-06-25T03:11:07.955Z,984.9
2018-06-25T03:12:09.117Z,984.9
2018-06-25T03:13:10.258Z,984.9
2018-06-25T03:14:11.409Z,984.8
2018-06-25T03:15:12.621Z,984.9
2018-06-25T03:16:14.078Z,984.9
2018-06-25T03:17:15.257Z,984.9
2018-06-25T03:18:16.389Z,984.9
2018-06-25T03:19:17.594Z,984.9
2018-06-25T03:20:18.798Z,984.9
2018-06-25T03:21:19.965Z,984.8
2018-06-25T03:22:21.095Z,984.9
2018-06-25T03:23:22.228Z,984.9
2018-06-25T03:24:23.361Z,984.9
2018-06-25T03:25:24.564Z,984.9
2018-06-25T03:26:25.691Z,984.9
2018-06-25T03:27:26.835Z,984.9
2018-06-25T03:28:27.979Z,984.8
2018-06-25T03:29:29.129Z,984.8
2018-06-25T03:30:30.336Z,984.8
2018-06-25T03:31:31.461Z,984.8
2018-06-25T03:32:32.847Z,984.8
2018-06-25T03:33:34.072Z,984.9
2018-06-25T03:34:35.245Z,984.9
2018-06-25T03:35:36.717Z,984.9
2018-06-25T03:36:37.853Z,985
2018-06-25T03:37:39.014Z,985
2018-06-25T03:38:40.153Z,985
2018-06-25T03:39:41.312Z,985.1
2018-06-25T03:40:42.520Z,985.1
2018-06-25T03:41:43.666Z,985.1
2018-06-25T03:42:44.848Z,985.1
2018-06-25T03:43:45.973Z,985.2
2018-06-25T03:44:47.130Z,985.1
2018-06-25T03:45:48.350Z,985.2
2018-06-25T03:46:49.487Z,985.2
2018-06-25T03:47:50.621Z,985.2
2018-06-25T03:48:51.798Z,985.2
2018-06-25T03:49:52.953Z,985.1
2018-06-25T03:50:54.122Z,985.2
2018-06-25T03:51:55.312Z,985.3
2018-06-25T03:52:56.832Z,985.2
2018-06-25T03:53:57.973Z,985.2
2018-06-25T03:54:59.136Z,985.2
2018-06-25T03:56:00.345Z,985
2018-06-25T03:57:01.474Z,985.2
2018-06-25T03:58:02.633Z,985.3
2018-06-25T03:59:03.761Z,985.2
2018-06-25T04:00:04.913Z,985.3
2018-06-25T04:01:06.335Z,985.3
2018-06-25T04:02:07.433Z,985.3
2018-06-25T04:03:08.610Z,985.3
2018-06-25T04:04:09.734Z,985.4
2018-06-25T04:05:10.856Z,985.4
2018-06-25T04:06:12.032Z,985.5
2018-06-25T04:07:13.227Z,985.5
2018-06-25T04:08:14.360Z,985.5
2018-06-25T04:09:15.508Z,985.5
2018-06-25T04:10:16.635Z,985.5
2018-06-25T04:11:17.790Z,985.5
2018-06-25T04:12:18.950Z,985.5
2018-06-25T04:13:20.104Z,985.4
2018-06-25T04:14:21.253Z,985.6
2018-06-25T04:15:22.418Z,985.6
2018-06-25T04:16:23.794Z,985.6
2018-06-25T04:17:24.927Z,985.6
2018-06-25T04:18:26.093Z,985.7
2018-06-25T04:19:27.248Z,985.6
2018-06-25T04:20:28.496Z,985.6
2018-06-25T04:21:29.664Z,985.6
2018-06-25T04:22:30.845Z,985.4
2018-06-25T04:23:31.973Z,985.7
2018-06-25T04:24:33.127Z,985.7
2018-06-25T04:25:34.255Z,985.7
2018-06-25T04:26:35.473Z,985.8
2018-06-25T04:27:36.605Z,985.7
2018-06-25T04:28:37.735Z,985.8
2018-06-25T04:29:38.925Z,985.8
2018-06-25T04:30:40.135Z,985.9
2018-06-25T04:31:41.577Z,985.9
2018-06-25T04:32:42.710Z,985.7
2018-06-25T04:33:43.863Z,985.9
2018-06-25T04:34:44.999Z,985.9
2018-06-25T04:35:46.125Z,986
2018-06-25T04:36:47.357Z,985.8
2018-06-25T04:37:48.479Z,986
2018-06-25T04:38:49.635Z,985.9
2018-06-25T04:39:50.775Z,986
2018-06-25T04:40:51.896Z,986
2018-06-25T04:41:53.060Z,985.9
2018-06-25T04:42:54.229Z,985.9
2018-06-25T04:43:55.404Z,985.8
2018-06-25T04:44:56.540Z,985.8
2018-06-25T04:45:57.720Z,985.9
2018-06-25T04:46:58.926Z,985.9
2018-06-25T04:48:00.064Z,986
2018-06-25T04:49:01.230Z,985.9
2018-06-25T04:50:02.454Z,985.8
2018-06-25T04:51:03.587Z,985.9
2018-06-25T04:52:04.745Z,985.8
2018-06-25T04:53:05.941Z,985.9
2018-06-25T04:54:07.133Z,985.9
2018-06-25T04:55:08.284Z,985.7
2018-06-25T04:56:10.422Z,985.9
2018-06-25T04:57:11.615Z,986
2018-06-25T04:58:12.794Z,985.9
2018-06-25T04:59:13.930Z,985.9
2018-06-25T05:00:15.121Z,985.9
2018-06-25T05:01:18.834Z,985.9
2018-06-25T05:02:20.546Z,985.9
2018-06-25T05:03:21.669Z,985.9
2018-06-25T05:04:22.812Z,986
2018-06-25T05:05:23.964Z,986
2018-06-25T05:06:25.129Z,986
2018-06-25T05:07:26.316Z,986
2018-06-25T05:08:27.464Z,986
2018-06-25T05:09:28.596Z,986.1
2018-06-25T05:10:29.741Z,986
2018-06-25T05:11:30.907Z,986.1
2018-06-25T05:12:32.074Z,986.1
2018-06-25T05:13:33.236Z,985.7
2018-06-25T05:14:34.393Z,986.1
2018-06-25T05:15:35.565Z,986.1
2018-06-25T05:16:36.705Z,986.1
2018-06-25T05:17:37.941Z,986.1
2018-06-25T05:18:39.123Z,985.9
2018-06-25T05:19:40.280Z,986
2018-06-25T05:20:41.493Z,985.9
2018-06-25T05:21:42.627Z,986.1
2018-06-25T05:22:44.661Z,986.1
2018-06-25T05:23:45.820Z,986.1
2018-06-25T05:24:46.985Z,986.2
2018-06-25T05:25:48.123Z,986.1
2018-06-25T05:26:49.257Z,986
2018-06-25T05:27:50.426Z,986.1
2018-06-25T05:28:51.600Z,986
2018-06-25T05:29:52.727Z,986.3
2018-06-25T05:30:53.934Z,986.2
2018-06-25T05:31:55.181Z,986.2
2018-06-25T05:32:56.673Z,986.3
2018-06-25T05:33:57.836Z,986.2
2018-06-25T05:34:58.998Z,986.2
2018-06-25T05:36:00.170Z,986.3
2018-06-25T05:37:01.334Z,986.3
2018-06-25T05:38:02.506Z,986.2
2018-06-25T05:39:03.664Z,986.3
2018-06-25T05:40:05.821Z,986.4
2018-06-25T05:41:06.981Z,986.3
2018-06-25T05:42:08.113Z,986.1
2018-06-25T05:43:09.300Z,986.3
2018-06-25T05:44:10.457Z,986.3
2018-06-25T05:45:11.625Z,986.3
2018-06-25T05:46:12.782Z,986.3
2018-06-25T05:47:13.970Z,986.4
2018-06-25T05:48:15.440Z,986.4
2018-06-25T05:49:16.622Z,986.4
2018-06-25T05:50:17.926Z,986.4
2018-06-25T05:51:19.080Z,986.4
2018-06-25T05:52:20.236Z,986.2
2018-06-25T05:53:21.411Z,986.3
2018-06-25T05:54:22.555Z,986.4
2018-06-25T05:55:23.697Z,986.3
2018-06-25T05:56:24.874Z,986.3
2018-06-25T05:57:26.030Z,986.5
2018-06-25T05:58:27.218Z,986.2
2018-06-25T05:59:28.356Z,986.3
2018-06-25T06:00:29.485Z,986.5
2018-06-25T06:01:30.645Z,986.3
2018-06-25T06:02:31.777Z,986.5
2018-06-25T06:03:33.485Z,986.6
2018-06-25T06:04:34.672Z,986.6
2018-06-25T06:05:37.123Z,986.5
2018-06-25T06:06:38.264Z,986.6
2018-06-25T06:07:39.465Z,986.6
2018-06-25T06:08:40.733Z,987
2018-06-25T06:09:41.820Z,987.1
2018-06-25T06:10:42.968Z,987.2
2018-06-25T06:11:44.123Z,987
2018-06-25T06:12:45.363Z,987.2
2018-06-25T06:13:46.544Z,987.2
2018-06-25T06:14:47.734Z,987.1
2018-06-25T06:15:48.865Z,987.1
2018-06-25T06:16:49.998Z,987.1
2018-06-25T06:17:51.141Z,987.1
2018-06-25T06:18:52.413Z,987.1
2018-06-25T06:19:53.589Z,987.1
2018-06-25T06:20:54.748Z,987
2018-06-25T06:21:56.024Z,987.1
2018-06-25T06:22:57.171Z,987.1
2018-06-25T06:23:58.360Z,987
2018-06-25T06:24:59.791Z,987.1
2018-06-25T06:26:00.998Z,987.1
2018-06-25T06:27:02.446Z,987.1
2018-06-25T06:28:03.682Z,987.1
2018-06-25T06:29:04.866Z,987.1
2018-06-25T06:30:06.089Z,987.1
2018-06-25T06:31:07.239Z,987.2
2018-06-25T06:32:08.416Z,987.2
2018-06-25T06:33:09.569Z,987
2018-06-25T06:34:10.765Z,987.2
2018-06-25T06:35:11.902Z,987.1
2018-06-25T06:36:13.109Z,987.2
2018-06-25T06:37:14.293Z,987.2
2018-06-25T06:38:15.522Z,987.2
2018-06-25T06:39:16.713Z,987.2
2018-06-25T06:40:17.877Z,987.2
2018-06-25T06:41:19.041Z,987.3
2018-06-25T06:42:20.216Z,987.2
2018-06-25T06:43:21.380Z,987
2018-06-25T06:44:22.602Z,987.1
2018-06-25T06:45:23.851Z,987.3
2018-06-25T06:46:26.497Z,987.3
2018-06-25T06:47:27.726Z,987.3
2018-06-25T06:48:28.895Z,987.2
2018-06-25T06:49:30.150Z,987.3
2018-06-25T06:50:31.305Z,987.3
2018-06-25T06:51:32.572Z,987.2
2018-06-25T06:52:33.616Z,987.4
2018-06-25T06:53:34.751Z,987.3
2018-06-25T06:54:36.011Z,987.2
2018-06-25T06:55:37.196Z,987.4
2018-06-25T06:56:38.412Z,987.2
2018-06-25T06:57:39.645Z,987.4
2018-06-25T06:58:40.827Z,987.4
2018-06-25T06:59:42.039Z,987.3
2018-06-25T07:00:43.213Z,987.4
2018-06-25T07:01:44.410Z,987.4
2018-06-25T07:02:45.684Z,987.4
2018-06-25T07:03:46.868Z,987.3
2018-06-25T07:04:48.231Z,987.5
2018-06-25T07:05:49.399Z,987.5
2018-06-25T07:06:50.550Z,987.4
2018-06-25T07:07:51.726Z,987.5
2018-06-25T07:08:52.978Z,987.4
2018-06-25T07:09:54.179Z,987.2
2018-06-25T07:10:55.324Z,987.3
2018-06-25T07:11:56.618Z,987.3
2018-06-25T07:12:57.765Z,987.3
2018-06-25T07:13:58.936Z,987.3
2018-06-25T07:15:00.148Z,987.4
2018-06-25T07:16:01.387Z,987.3
2018-06-25T07:17:02.694Z,987.4
2018-06-25T07:18:03.879Z,987.4
2018-06-25T07:19:07.328Z,987.4
2018-06-25T07:20:08.571Z,987.4
2018-06-25T07:21:10.812Z,987.2
2018-06-25T07:22:11.977Z,987.4
2018-06-25T07:23:13.182Z,987.3
2018-06-25T07:24:14.386Z,987.3
2018-06-25T07:25:15.659Z,987.3
2018-06-25T07:26:16.839Z,987.3
2018-06-25T07:27:18.024Z,987.4
2018-06-25T07:28:19.311Z,987.4
2018-06-25T07:29:20.472Z,987.3
2018-06-25T07:30:21.676Z,987.4
2018-06-25T07:31:23.442Z,987.3
2018-06-25T07:32:24.992Z,987.4
2018-06-25T07:33:26.202Z,987.3
2018-06-25T07:34:27.394Z,987.3
2018-06-25T07:35:28.738Z,987.3
2018-06-25T07:36:29.965Z,987.4
2018-06-25T07:37:31.161Z,987.5
2018-06-25T07:38:32.350Z,987.3
2018-06-25T07:39:33.514Z,987.3
2018-06-25T07:40:34.757Z,987.3
2018-06-25T07:41:35.956Z,987.4
2018-06-25T07:42:41.126Z,987.4
2018-06-25T07:43:42.300Z,987.5
2018-06-25T07:44:43.565Z,987.5
2018-06-25T07:45:44.885Z,987.4
2018-06-25T07:46:46.044Z,987.3
2018-06-25T07:47:47.259Z,987.3
2018-06-25T07:48:48.431Z,987.3
2018-06-25T07:49:49.593Z,987.3
2018-06-25T07:50:50.853Z,987.3
2018-06-25T07:51:51.993Z,987.3
2018-06-25T07:52:53.254Z,987.4
2018-06-25T07:53:54.412Z,987.4
2018-06-25T07:54:55.604Z,987.2
2018-06-25T07:55:56.916Z,987.4
2018-06-25T07:56:58.124Z,987.4
2018-06-25T07:57:59.341Z,987.4
2018-06-25T07:59:00.490Z,987.4
2018-06-25T08:00:01.765Z,987.4
2018-06-25T08:01:05.485Z,987.3
2018-06-25T08:02:06.938Z,987.4
2018-06-25T08:03:08.102Z,987.4
2018-06-25T08:04:09.325Z,987.4
2018-06-25T08:05:10.495Z,987.4
2018-06-25T08:06:11.952Z,987.4
2018-06-25T08:07:13.112Z,987.4
2018-06-25T08:08:14.282Z,987.4
2018-06-25T08:09:15.463Z,987.4
2018-06-25T08:10:16.658Z,987.3
2018-06-25T08:11:20.242Z,987.3
2018-06-25T08:12:21.474Z,987.3
2018-06-25T08:13:22.611Z,987.3
2018-06-25T08:14:23.765Z,987.3
2018-06-25T08:15:24.942Z,987.4
2018-06-25T08:16:26.133Z,987.4
2018-06-25T08:17:27.293Z,987.4
2018-06-25T08:18:28.443Z,987.4
2018-06-25T08:19:29.575Z,987.4
2018-06-25T08:20:30.872Z,987.4
2018-06-25T08:21:32.040Z,987.4
2018-06-25T08:22:33.219Z,987.4
2018-06-25T08:23:34.403Z,987.3
2018-06-25T08:24:35.640Z,987.3
2018-06-25T08:25:36.938Z,987.5
2018-06-25T08:26:38.212Z,987.4
2018-06-25T08:27:39.399Z,987.4
2018-06-25T08:28:40.688Z,987.4
2018-06-25T08:29:41.884Z,987.5
2018-06-25T08:30:43.041Z,987.4
2018-06-25T08:31:44.208Z,987.4
2018-06-25T08:32:45.349Z,987.3
2018-06-25T08:33:46.570Z,987.5
2018-06-25T08:34:47.873Z,987.5
2018-06-25T08:35:49.025Z,987.5
2018-06-25T08:36:50.250Z,987.5
2018-06-25T08:37:51.410Z,987.6
2018-06-25T08:38:52.547Z,987.6
2018-06-25T08:39:53.707Z,987.5
2018-06-25T08:40:54.842Z,987.5
2018-06-25T08:41:56.424Z,987.5
2018-06-25T08:42:57.584Z,987.4
2018-06-25T08:43:58.763Z,987.5
2018-06-25T08:44:59.910Z,987.5
2018-06-25T08:46:01.143Z,987.4
2018-06-25T08:47:02.481Z,987.5
2018-06-25T08:48:03.675Z,987.5
2018-06-25T08:49:04.834Z,987.5
2018-06-25T08:50:06.317Z,987.6
2018-06-25T08:51:07.463Z,987.6
2018-06-25T08:52:08.675Z,987.6
2018-06-25T08:53:09.835Z,987.6
2018-06-25T08:54:16.006Z,987.7
2018-06-25T08:55:17.525Z,987.6
2018-06-25T08:56:18.698Z,987.7
2018-06-25T08:57:19.900Z,987.5
2018-06-25T08:58:21.033Z,987.6
2018-06-25T08:59:22.186Z,987.6
2018-06-25T09:00:23.340Z,987.7
2018-06-25T09:01:25.083Z,987.6
2018-06-25T09:02:26.296Z,987.7
2018-06-25T09:03:27.429Z,987.7
2018-06-25T09:04:28.605Z,987.7
2018-06-25T09:05:29.753Z,987.4
2018-06-25T09:06:30.925Z,987.7
2018-06-25T09:07:32.390Z,987.6
2018-06-25T09:08:33.541Z,987.6
2018-06-25T09:09:34.797Z,987.5
2018-06-25T09:10:35.903Z,987.6
2018-06-25T09:11:37.139Z,987.4
2018-06-25T09:12:38.331Z,987.6
2018-06-25T09:13:39.477Z,987.5
2018-06-25T09:14:40.655Z,987.5
2018-06-25T09:15:41.836Z,987.6
2018-06-25T09:16:42.966Z,987.6
2018-06-25T09:17:44.838Z,987.6
2018-06-25T09:18:46.015Z,987.5
2018-06-25T09:19:47.317Z,987.4
2018-06-25T09:20:48.469Z,987.7
2018-06-25T09:21:49.608Z,987.7
2018-06-25T09:22:52.267Z,987.7
2018-06-25T09:23:53.424Z,987.7
2018-06-25T09:24:54.586Z,987.8
2018-06-25T09:25:55.730Z,987.6
2018-06-25T09:26:56.952Z,987.7
2018-06-25T09:27:58.143Z,987.7
2018-06-25T09:28:59.339Z,987.8
2018-06-25T09:30:00.545Z,987.7
2018-06-25T09:31:01.733Z,987.7
2018-06-25T09:32:03.072Z,987.7
2018-06-25T09:33:04.346Z,987.7
2018-06-25T09:34:05.678Z,987.6
2018-06-25T09:35:09.108Z,987.6
2018-06-25T09:36:10.252Z,987.7
2018-06-25T09:37:11.490Z,987.7
2018-06-25T09:38:12.728Z,987.7
2018-06-25T09:39:13.916Z,987.8
2018-06-25T09:40:15.105Z,987.6
2018-06-25T09:41:16.543Z,987.7
2018-06-25T09:42:17.607Z,987.7
2018-06-25T09:43:18.811Z,987.7
2018-06-25T09:44:20.037Z,987.5
2018-06-25T09:45:21.444Z,987.5
2018-06-25T09:46:22.616Z,987.6
2018-06-25T09:47:23.792Z,987.6
2018-06-25T09:48:25.045Z,987.6
2018-06-25T09:49:26.273Z,987.6
2018-06-25T09:50:27.457Z,987.6
2018-06-25T09:51:29.664Z,987.6
2018-06-25T09:52:30.856Z,987.6
2018-06-25T09:53:32.072Z,987.5
2018-06-25T09:54:33.247Z,987.7
2018-06-25T09:55:34.497Z,987.7
2018-06-25T09:56:35.695Z,987.7
2018-06-25T09:57:37.398Z,987.7
2018-06-25T09:58:38.685Z,987.8
2018-06-25T09:59:39.926Z,987.7
2018-06-25T10:00:41.149Z,987.7
2018-06-25T10:01:42.418Z,987.7
2018-06-25T10:02:43.611Z,987.7
2018-06-25T10:03:44.801Z,987.6
2018-06-25T10:04:45.987Z,987.7
2018-06-25T10:05:47.186Z,987.7
2018-06-25T10:06:48.389Z,987.6
2018-06-25T10:07:53.919Z,987.6
2018-06-25T10:08:55.704Z,987.6
2018-06-25T10:09:56.974Z,987.6
2018-06-25T10:10:58.141Z,987.6
2018-06-25T10:11:59.317Z,987.6
2018-06-25T10:13:00.498Z,987.5
2018-06-25T10:14:01.910Z,987.6
2018-06-25T10:15:03.177Z,987.6
2018-06-25T10:16:04.340Z,987.6
2018-06-25T10:17:05.517Z,987.5
2018-06-25T10:18:06.816Z,987.5
2018-06-25T10:19:08.137Z,987.6
2018-06-25T10:20:09.333Z,987.6
2018-06-25T10:21:10.611Z,987.5
2018-06-25T10:22:11.736Z,987.5
2018-06-25T10:23:13.052Z,987.6
2018-06-25T10:24:14.308Z,987.5
2018-06-25T10:25:15.497Z,987.6
2018-06-25T10:26:16.697Z,987.6
2018-06-25T10:27:17.974Z,987.6
2018-06-25T10:28:19.121Z,987.5
2018-06-25T10:29:20.316Z,987.5
2018-06-25T10:30:22.968Z,987.5
2018-06-25T10:31:24.165Z,987.5
2018-06-25T10:32:25.434Z,987.5
2018-06-25T10:33:26.630Z,987.5
2018-06-25T10:34:28.082Z,987.5
2018-06-25T10:35:29.224Z,987.6
2018-06-25T10:36:30.454Z,987.4
2018-06-25T10:37:33.626Z,987.6
2018-06-25T10:38:34.817Z,987.6
2018-06-25T10:39:36.291Z,987.5
2018-06-25T10:40:37.646Z,987.5
2018-06-25T10:41:38.814Z,987.5
2018-06-25T10:42:40.134Z,987.4
2018-06-25T10:43:41.200Z,987.4
2018-06-25T10:44:42.429Z,987.4
2018-06-25T10:45:43.580Z,987.6
2018-06-25T10:46:44.853Z,987.4
2018-06-25T10:47:46.044Z,987.5
2018-06-25T10:48:47.241Z,987.5
2018-06-25T10:49:48.840Z,987.5
2018-06-25T10:50:50.009Z,987.5
2018-06-25T10:51:51.202Z,987.4
2018-06-25T10:52:52.376Z,987.4
2018-06-25T10:53:53.549Z,987.5
2018-06-25T10:54:54.821Z,987.5
2018-06-25T10:55:56.026Z,987.5
2018-06-25T10:56:57.280Z,987.3
2018-06-25T10:57:58.496Z,987.5
2018-06-25T10:58:59.713Z,987.5
2018-06-25T11:00:01.171Z,987.5
2018-06-25T11:01:02.212Z,987.5
2018-06-25T11:02:03.314Z,987.5
2018-06-25T11:03:07.025Z,987.5
2018-06-25T11:04:08.177Z,987.5
2018-06-25T11:05:09.399Z,987.5
2018-06-25T11:06:10.590Z,987.4
2018-06-25T11:07:11.900Z,987.4
2018-06-25T11:08:12.957Z,987.4
2018-06-25T11:09:14.150Z,987.5
2018-06-25T11:10:15.559Z,987.4
2018-06-25T11:11:16.768Z,987.5
2018-06-25T11:12:17.963Z,987.5
2018-06-25T11:13:19.151Z,987.6
2018-06-25T11:14:20.358Z,987.6
2018-06-25T11:15:21.701Z,987.5
2018-06-25T11:16:23.367Z,987.6
2018-06-25T11:17:26.062Z,987.4
2018-06-25T11:18:27.393Z,987.5
2018-06-25T11:19:28.612Z,987.5
2018-06-25T11:20:29.837Z,987.5
2018-06-25T11:21:31.038Z,987.5
2018-06-25T11:22:32.216Z,987.5
2018-06-25T11:23:33.421Z,987.4
2018-06-25T11:24:34.653Z,987.4
2018-06-25T11:25:35.908Z,987.3
2018-06-25T11:26:39.630Z,987.4
2018-06-25T11:27:40.815Z,987.4
2018-06-25T11:28:41.897Z,987.3
2018-06-25T11:29:43.056Z,987.3
2018-06-25T11:30:44.308Z,987.3
2018-06-25T11:31:45.478Z,987.3
2018-06-25T11:32:46.805Z,987.5
2018-06-25T11:33:47.984Z,987.4
2018-06-25T11:34:49.152Z,987.5
2018-06-25T11:35:50.374Z,987.5
2018-06-25T11:36:51.510Z,987.5
2018-06-25T11:37:52.672Z,987.5
2018-06-25T11:38:53.816Z,987.4
2018-06-25T11:39:54.992Z,987.4
2018-06-25T11:40:56.162Z,987.4
2018-06-25T11:41:57.421Z,987.4
2018-06-25T11:42:58.665Z,987.4
2018-06-25T11:43:59.891Z,987.4
2018-06-25T11:45:01.039Z,987.4
2018-06-25T11:46:02.265Z,987.3
2018-06-25T11:47:03.420Z,987.3
2018-06-25T11:48:04.561Z,987.3
2018-06-25T11:49:05.728Z,987.3
2018-06-25T11:50:06.886Z,987.2
2018-06-25T11:51:09.105Z,987.3
2018-06-25T11:52:10.294Z,987.3
2018-06-25T11:53:11.449Z,987.3
2018-06-25T11:54:12.609Z,987.3
2018-06-25T11:55:13.769Z,987.3
2018-06-25T11:56:15.009Z,987.3
2018-06-25T11:57:16.865Z,987.3
2018-06-25T11:58:18.041Z,987.3
2018-06-25T11:59:19.192Z,987.2
2018-06-25T12:00:20.366Z,987.2
2018-06-25T12:01:21.594Z,987.1
2018-06-25T12:02:22.789Z,987.1
2018-06-25T12:03:23.906Z,987.2
2018-06-25T12:04:25.000Z,987.2
2018-06-25T12:05:26.218Z,987.2
2018-06-25T12:06:27.474Z,987.3
2018-06-25T12:07:28.601Z,987.3
2018-06-25T12:08:29.788Z,987.2
2018-06-25T12:09:30.989Z,987.3
2018-06-25T12:10:32.210Z,987.3
2018-06-25T12:11:33.552Z,987.3
2018-06-25T12:12:34.718Z,987.3
2018-06-25T12:13:35.900Z,987.2
2018-06-25T12:14:37.066Z,987.2
2018-06-25T12:15:38.263Z,987.2
2018-06-25T12:16:39.487Z,987.3
2018-06-25T12:17:40.656Z,987.2
2018-06-25T12:18:41.851Z,987.2
2018-06-25T12:19:43.037Z,987.2
2018-06-25T12:20:44.180Z,987.2
2018-06-25T12:21:45.468Z,987.2
2018-06-25T12:22:46.626Z,987.2
2018-06-25T12:23:47.896Z,987.2
2018-06-25T12:24:49.041Z,987.1
2018-06-25T12:25:50.204Z,987.1
2018-06-25T12:26:51.429Z,987.1
2018-06-25T12:27:52.648Z,987.2
2018-06-25T12:28:53.926Z,987.2
2018-06-25T12:29:55.118Z,987.2
2018-06-25T12:30:56.353Z,987.2
2018-06-25T12:31:57.636Z,987.1
2018-06-25T12:32:58.833Z,987.2
2018-06-25T12:34:00.006Z,987.2
2018-06-25T12:35:01.310Z,987
2018-06-25T12:36:02.473Z,987.1
2018-06-25T12:37:03.691Z,987
2018-06-25T12:38:04.944Z,987.1
2018-06-25T12:39:06.093Z,987.1
2018-06-25T12:40:07.428Z,987.2
2018-06-25T12:41:08.680Z,987.2
2018-06-25T12:42:10.214Z,987.1
2018-06-25T12:43:11.464Z,987.2
2018-06-25T12:44:12.651Z,987.2
2018-06-25T12:45:13.818Z,987.2
2018-06-25T12:46:15.737Z,987.1
2018-06-25T12:47:17.067Z,987.1
2018-06-25T12:48:18.545Z,987.1
2018-06-25T12:49:19.789Z,987.1
2018-06-25T12:50:21.050Z,987.1
2018-06-25T12:51:26.245Z,987.1
2018-06-25T12:52:27.569Z,987.1
2018-06-25T12:53:29.225Z,987.1
2018-06-25T12:54:30.478Z,987
2018-06-25T12:55:31.677Z,987.1
2018-06-25T12:56:32.922Z,987.1
2018-06-25T12:57:34.155Z,987.2
2018-06-25T12:58:35.376Z,987.3
2018-06-25T12:59:36.640Z,987.3
2018-06-25T13:00:37.971Z,987.1
2018-06-25T13:01:39.108Z,987.2
2018-06-25T13:02:40.366Z,987.1
2018-06-25T13:03:41.760Z,987.1
2018-06-25T13:04:43.219Z,987.2
2018-06-25T13:05:44.560Z,987.1
2018-06-25T13:06:45.767Z,987.1
2018-06-25T13:07:53.285Z,987.2
2018-06-25T13:08:54.494Z,987.1
2018-06-25T13:09:55.759Z,987.1
2018-06-25T13:10:57.032Z,987.1